NWS438 UWGG-URSS
Flight info
| Callsign | NWS438 |
|---|---|
| Flight time | 2h 23m |
| Altitude | 33000 |
| Route | OKSUD T778 TERDI/K0822F320 P165 DAFOS P135 UROBO R807 MOLED/K0820F310 N50 LIDUS G242 ZG DCT ITAKA/K0798F300 DCT OBBUD DCT AMKOL DCT GOTIK DCT MEMZA DCT VENFO DCT BINOL |
| Aircraft | A21N/M-SDE2E3FGHIRWXY/LB1 |
Departure
| Time | 2026-04-16 08:51 |
|---|---|
| Airport | Nizhny Novgorod / Strigino International Airport (UWGG) |
Arrival
| Time | 2026-04-16 11:15 |
|---|---|
| Airport | Sochi International Airport (URSS) |
| Time | Latitude | Longitude | Altitude | Speed | Heading |
|---|---|---|---|---|---|
| 2026-04-16 08:33 | 56.22179 | 43.78821 | 271 ft | 0 kts | 147° |
| 2026-04-16 08:44 | 56.22172 | 43.78829 | 274 ft | 3 kts | 147° |
| 2026-04-16 08:45 | 56.22148 | 43.78855 | 271 ft | 5 kts | 155° |
| 2026-04-16 08:45 | 56.22109 | 43.78866 | 271 ft | 5 kts | 186° |
| 2026-04-16 08:45 | 56.22072 | 43.78827 | 271 ft | 8 kts | 238° |
| 2026-04-16 08:45 | 56.22073 | 43.78731 | 271 ft | 7 kts | 266° |
| 2026-04-16 08:46 | 56.22040 | 43.78675 | 271 ft | 4 kts | 198° |
| 2026-04-16 08:46 | 56.22039 | 43.78675 | 271 ft | 0 kts | 198° |
| 2026-04-16 08:47 | 56.22039 | 43.78674 | 271 ft | 0 kts | 198° |
| 2026-04-16 08:47 | 56.22026 | 43.78667 | 271 ft | 3 kts | 198° |
| 2026-04-16 08:47 | 56.21988 | 43.78651 | 271 ft | 8 kts | 191° |
| 2026-04-16 08:47 | 56.21925 | 43.78628 | 271 ft | 7 kts | 196° |
| 2026-04-16 08:48 | 56.21866 | 43.78591 | 271 ft | 11 kts | 193° |
| 2026-04-16 08:48 | 56.21781 | 43.78558 | 271 ft | 14 kts | 192° |
| 2026-04-16 08:48 | 56.21672 | 43.78519 | 271 ft | 17 kts | 191° |
| 2026-04-16 08:48 | 56.21557 | 43.78475 | 271 ft | 13 kts | 192° |
| 2026-04-16 08:49 | 56.21484 | 43.78409 | 271 ft | 11 kts | 248° |
| 2026-04-16 08:49 | 56.21491 | 43.78265 | 272 ft | 12 kts | 283° |
| 2026-04-16 08:49 | 56.21512 | 43.78114 | 273 ft | 9 kts | 283° |
| 2026-04-16 08:49 | 56.21542 | 43.78060 | 273 ft | 7 kts | 353° |
| 2026-04-16 08:50 | 56.21570 | 43.78064 | 274 ft | 0 kts | 14° |
| 2026-04-16 08:50 | 56.21707 | 43.78115 | 273 ft | 55 kts | 11° |
| 2026-04-16 08:50 | 56.22313 | 43.78335 | 273 ft | 121 kts | 12° |
| 2026-04-16 08:50 | 56.23321 | 43.78697 | 295 ft | 169 kts | 15° |
| 2026-04-16 08:51 | 56.24493 | 43.79100 | 819 ft | 173 kts | 14° |
| 2026-04-16 08:51 | 56.25686 | 43.79548 | 1550 ft | 175 kts | 17° |
| 2026-04-16 08:51 | 56.26871 | 43.80043 | 2276 ft | 175 kts | 17° |
| 2026-04-16 08:51 | 56.28058 | 43.80512 | 2975 ft | 176 kts | 17° |
| 2026-04-16 08:52 | 56.29279 | 43.80922 | 3578 ft | 186 kts | 15° |
| 2026-04-16 08:52 | 56.30629 | 43.81422 | 3956 ft | 210 kts | 16° |
| 2026-04-16 08:52 | 56.32124 | 43.82060 | 4461 ft | 232 kts | 16° |
| 2026-04-16 08:52 | 56.33779 | 43.82673 | 4878 ft | 261 kts | 13° |
| 2026-04-16 08:53 | 56.35648 | 43.83337 | 5302 ft | 283 kts | 13° |
| 2026-04-16 08:53 | 56.37554 | 43.83984 | 6330 ft | 280 kts | 13° |
| 2026-04-16 08:53 | 56.39399 | 43.85054 | 6905 ft | 278 kts | 34° |
| 2026-04-16 08:53 | 56.40786 | 43.87438 | 7654 ft | 277 kts | 58° |
| 2026-04-16 08:54 | 56.41553 | 43.90584 | 8486 ft | 274 kts | 81° |
| 2026-04-16 08:54 | 56.41565 | 43.93991 | 9335 ft | 273 kts | 101° |
| 2026-04-16 08:54 | 56.41134 | 43.97344 | 10179 ft | 275 kts | 105° |
| 2026-04-16 08:54 | 56.40649 | 44.00750 | 10768 ft | 289 kts | 105° |
| 2026-04-16 08:55 | 56.40162 | 44.04359 | 11099 ft | 310 kts | 104° |
| 2026-04-16 08:55 | 56.39656 | 44.08287 | 11386 ft | 332 kts | 104° |
| 2026-04-16 08:55 | 56.39130 | 44.12464 | 11715 ft | 350 kts | 104° |
| 2026-04-16 08:55 | 56.38487 | 44.16764 | 12286 ft | 358 kts | 112° |
| 2026-04-16 08:56 | 56.37261 | 44.20651 | 13074 ft | 358 kts | 129° |
| 2026-04-16 08:56 | 56.35420 | 44.23646 | 13856 ft | 359 kts | 147° |
| 2026-04-16 08:56 | 56.33190 | 44.25698 | 14635 ft | 360 kts | 155° |
| 2026-04-16 08:56 | 56.30893 | 44.27525 | 15295 ft | 364 kts | 155° |
| 2026-04-16 08:57 | 56.28583 | 44.29360 | 15778 ft | 372 kts | 155° |
| 2026-04-16 08:57 | 56.26205 | 44.31277 | 16306 ft | 378 kts | 155° |
| 2026-04-16 08:57 | 56.23792 | 44.33239 | 16874 ft | 382 kts | 155° |
| 2026-04-16 08:57 | 56.21370 | 44.35222 | 17517 ft | 383 kts | 155° |
| 2026-04-16 08:58 | 56.18955 | 44.37202 | 18232 ft | 382 kts | 155° |
| 2026-04-16 08:58 | 56.16527 | 44.39193 | 18816 ft | 385 kts | 154° |
| 2026-04-16 08:58 | 56.14084 | 44.41201 | 19326 ft | 388 kts | 154° |
| 2026-04-16 08:58 | 56.11620 | 44.43223 | 19818 ft | 392 kts | 154° |
| 2026-04-16 08:59 | 56.09123 | 44.45266 | 20261 ft | 397 kts | 154° |
| 2026-04-16 08:59 | 56.06634 | 44.47303 | 20663 ft | 401 kts | 154° |
| 2026-04-16 08:59 | 56.04079 | 44.49393 | 21092 ft | 406 kts | 155° |
| 2026-04-16 08:59 | 56.01497 | 44.51497 | 21533 ft | 409 kts | 155° |
| 2026-04-16 09:00 | 55.98892 | 44.53616 | 21956 ft | 414 kts | 155° |
| 2026-04-16 09:00 | 55.96270 | 44.55747 | 22479 ft | 415 kts | 155° |
| 2026-04-16 09:00 | 55.93645 | 44.57878 | 23156 ft | 413 kts | 155° |
| 2026-04-16 09:00 | 55.91033 | 44.59998 | 23697 ft | 415 kts | 155° |
| 2026-04-16 09:01 | 55.85684 | 44.64336 | 24250 ft | 429 kts | 155° |
| 2026-04-16 09:01 | 55.82995 | 44.66508 | 24623 ft | 432 kts | 155° |
| 2026-04-16 09:01 | 55.80247 | 44.68718 | 25018 ft | 435 kts | 155° |
| 2026-04-16 09:02 | 55.77489 | 44.70931 | 25472 ft | 435 kts | 155° |
| 2026-04-16 09:02 | 55.74733 | 44.73141 | 25998 ft | 434 kts | 155° |
| 2026-04-16 09:02 | 55.71981 | 44.75345 | 26523 ft | 434 kts | 155° |
| 2026-04-16 09:02 | 55.69224 | 44.77550 | 26941 ft | 435 kts | 155° |
| 2026-04-16 09:03 | 55.66451 | 44.79766 | 27280 ft | 439 kts | 155° |
| 2026-04-16 09:03 | 55.63657 | 44.81995 | 27598 ft | 442 kts | 155° |
| 2026-04-16 09:03 | 55.60878 | 44.84206 | 27909 ft | 446 kts | 155° |
| 2026-04-16 09:03 | 55.58070 | 44.86569 | 28238 ft | 448 kts | 151° |
| 2026-04-16 09:04 | 55.55491 | 44.89659 | 28592 ft | 449 kts | 140° |
| 2026-04-16 09:04 | 55.53170 | 44.93334 | 29030 ft | 448 kts | 137° |
| 2026-04-16 09:04 | 55.50904 | 44.97091 | 29528 ft | 446 kts | 136° |
| 2026-04-16 09:04 | 55.48647 | 45.00831 | 30038 ft | 444 kts | 137° |
| 2026-04-16 09:05 | 55.46418 | 45.04492 | 30429 ft | 444 kts | 137° |
| 2026-04-16 09:05 | 55.44163 | 45.08175 | 30823 ft | 442 kts | 137° |
| 2026-04-16 09:05 | 55.41909 | 45.11844 | 31148 ft | 442 kts | 137° |
| 2026-04-16 09:05 | 55.39646 | 45.15516 | 31420 ft | 444 kts | 137° |
| 2026-04-16 09:06 | 55.37367 | 45.19206 | 31692 ft | 445 kts | 137° |
| 2026-04-16 09:06 | 55.35087 | 45.22885 | 31957 ft | 446 kts | 137° |
| 2026-04-16 09:06 | 55.32802 | 45.26575 | 32266 ft | 446 kts | 137° |
| 2026-04-16 09:06 | 55.30516 | 45.30253 | 32563 ft | 447 kts | 137° |
| 2026-04-16 09:07 | 55.28227 | 45.33936 | 32866 ft | 446 kts | 137° |
| 2026-04-16 09:07 | 55.25966 | 45.37567 | 33152 ft | 446 kts | 137° |
| 2026-04-16 09:07 | 55.23668 | 45.41249 | 33300 ft | 448 kts | 137° |
| 2026-04-16 09:08 | 55.19071 | 45.48599 | 33285 ft | 447 kts | 137° |
| 2026-04-16 09:08 | 55.14475 | 45.55932 | 33264 ft | 447 kts | 137° |
| 2026-04-16 09:09 | 55.09872 | 45.63253 | 33265 ft | 447 kts | 137° |
| 2026-04-16 09:09 | 55.05294 | 45.70507 | 33258 ft | 447 kts | 137° |
| 2026-04-16 09:10 | 55.00683 | 45.77791 | 33262 ft | 448 kts | 137° |
| 2026-04-16 09:10 | 54.96062 | 45.85064 | 33262 ft | 448 kts | 137° |
| 2026-04-16 09:11 | 54.91438 | 45.92322 | 33261 ft | 448 kts | 137° |
| 2026-04-16 09:11 | 54.86811 | 45.99554 | 33263 ft | 448 kts | 137° |
| 2026-04-16 09:12 | 54.82225 | 46.06761 | 33262 ft | 448 kts | 137° |
| 2026-04-16 09:12 | 54.77528 | 46.13836 | 33261 ft | 447 kts | 141° |
| 2026-04-16 09:13 | 54.72665 | 46.20581 | 33257 ft | 448 kts | 141° |
| 2026-04-16 09:13 | 54.67791 | 46.27292 | 33254 ft | 448 kts | 141° |
| 2026-04-16 09:14 | 54.62950 | 46.33930 | 33254 ft | 448 kts | 141° |
| 2026-04-16 09:14 | 54.58058 | 46.40577 | 33258 ft | 448 kts | 141° |
| 2026-04-16 09:15 | 54.53173 | 46.47230 | 33253 ft | 448 kts | 141° |
| 2026-04-16 09:15 | 54.48317 | 46.53843 | 33253 ft | 448 kts | 141° |
| 2026-04-16 09:16 | 54.43424 | 46.60481 | 33255 ft | 448 kts | 141° |
| 2026-04-16 09:16 | 54.38536 | 46.67098 | 33251 ft | 448 kts | 141° |
| 2026-04-16 09:17 | 54.33646 | 46.73708 | 33253 ft | 447 kts | 142° |
| 2026-04-16 09:17 | 54.28701 | 46.80173 | 33244 ft | 447 kts | 147° |
| 2026-04-16 09:17 | 54.25978 | 46.82592 | 33243 ft | 448 kts | 159° |
| 2026-04-16 09:18 | 54.22983 | 46.83992 | 33242 ft | 447 kts | 172° |
| 2026-04-16 09:18 | 54.19887 | 46.84247 | 33245 ft | 447 kts | 184° |
| 2026-04-16 09:18 | 54.16817 | 46.83496 | 33247 ft | 446 kts | 191° |
| 2026-04-16 09:19 | 54.10747 | 46.81376 | 33243 ft | 445 kts | 192° |
| 2026-04-16 09:19 | 54.04668 | 46.79367 | 33240 ft | 445 kts | 191° |
| 2026-04-16 09:20 | 53.98614 | 46.77457 | 33237 ft | 445 kts | 191° |
| 2026-04-16 09:20 | 53.92513 | 46.75589 | 33236 ft | 446 kts | 191° |
| 2026-04-16 09:21 | 53.86407 | 46.73723 | 33238 ft | 446 kts | 191° |
| 2026-04-16 09:21 | 53.80300 | 46.71850 | 33237 ft | 446 kts | 191° |
| 2026-04-16 09:22 | 53.74234 | 46.69953 | 33230 ft | 447 kts | 191° |
| 2026-04-16 09:22 | 53.68129 | 46.67962 | 33234 ft | 447 kts | 191° |
| 2026-04-16 09:23 | 53.62018 | 46.65996 | 33231 ft | 447 kts | 191° |
| 2026-04-16 09:23 | 53.55906 | 46.64047 | 33234 ft | 447 kts | 191° |
| 2026-04-16 09:24 | 53.49828 | 46.62113 | 33231 ft | 448 kts | 191° |
| 2026-04-16 09:24 | 53.43693 | 46.60190 | 33228 ft | 449 kts | 191° |
| 2026-04-16 09:25 | 53.37550 | 46.58289 | 33231 ft | 449 kts | 191° |
| 2026-04-16 09:25 | 53.31400 | 46.56387 | 33227 ft | 449 kts | 191° |
| 2026-04-16 09:26 | 53.25283 | 46.54508 | 33227 ft | 450 kts | 191° |
| 2026-04-16 09:26 | 53.19116 | 46.52631 | 33225 ft | 450 kts | 191° |
| 2026-04-16 09:27 | 53.12953 | 46.50728 | 33227 ft | 451 kts | 191° |
| 2026-04-16 09:27 | 53.06783 | 46.48840 | 33225 ft | 451 kts | 191° |
| 2026-04-16 09:28 | 53.00599 | 46.46964 | 33229 ft | 451 kts | 191° |
| 2026-04-16 09:28 | 52.94456 | 46.45107 | 33228 ft | 452 kts | 191° |
| 2026-04-16 09:29 | 52.88277 | 46.43236 | 33231 ft | 452 kts | 191° |
| 2026-04-16 09:29 | 52.82082 | 46.41381 | 33231 ft | 452 kts | 191° |
| 2026-04-16 09:30 | 52.75928 | 46.39539 | 33228 ft | 453 kts | 191° |
| 2026-04-16 09:30 | 52.69725 | 46.37674 | 33233 ft | 453 kts | 191° |
| 2026-04-16 09:31 | 52.63517 | 46.35839 | 33237 ft | 454 kts | 191° |
| 2026-04-16 09:31 | 52.57305 | 46.33988 | 33240 ft | 453 kts | 191° |
| 2026-04-16 09:32 | 52.51139 | 46.32153 | 33242 ft | 454 kts | 191° |
| 2026-04-16 09:32 | 52.44916 | 46.30310 | 33243 ft | 455 kts | 191° |
| 2026-04-16 09:33 | 52.38690 | 46.28474 | 33249 ft | 455 kts | 191° |
| 2026-04-16 09:33 | 52.32465 | 46.26640 | 33241 ft | 455 kts | 191° |
| 2026-04-16 09:34 | 52.26272 | 46.24824 | 33246 ft | 455 kts | 191° |
| 2026-04-16 09:34 | 52.20038 | 46.23000 | 33246 ft | 455 kts | 191° |
| 2026-04-16 09:35 | 52.13810 | 46.21176 | 33250 ft | 454 kts | 191° |
| 2026-04-16 09:35 | 52.07584 | 46.19367 | 33253 ft | 454 kts | 191° |
| 2026-04-16 09:36 | 52.01359 | 46.17575 | 33250 ft | 455 kts | 191° |
| 2026-04-16 09:36 | 51.95176 | 46.15786 | 33260 ft | 455 kts | 191° |
| 2026-04-16 09:37 | 51.88948 | 46.13980 | 33257 ft | 454 kts | 191° |
| 2026-04-16 09:37 | 51.82716 | 46.12181 | 33260 ft | 455 kts | 191° |
| 2026-04-16 09:38 | 51.76490 | 46.10394 | 33258 ft | 455 kts | 191° |
| 2026-04-16 09:38 | 51.70303 | 46.08610 | 33255 ft | 455 kts | 191° |
| 2026-04-16 09:39 | 51.64069 | 46.06830 | 33257 ft | 455 kts | 191° |
| 2026-04-16 09:39 | 51.57844 | 46.05020 | 32951 ft | 455 kts | 193° |
| 2026-04-16 09:39 | 51.54835 | 46.03524 | 32692 ft | 452 kts | 204° |
| 2026-04-16 09:40 | 51.51975 | 46.01439 | 32436 ft | 451 kts | 206° |
| 2026-04-16 09:40 | 51.49189 | 45.99276 | 32241 ft | 450 kts | 207° |
| 2026-04-16 09:40 | 51.46376 | 45.97085 | 32209 ft | 450 kts | 207° |
| 2026-04-16 09:41 | 51.40722 | 45.92745 | 32235 ft | 451 kts | 206° |
| 2026-04-16 09:41 | 51.35049 | 45.88447 | 32244 ft | 451 kts | 206° |
| 2026-04-16 09:42 | 51.29383 | 45.84157 | 32241 ft | 451 kts | 206° |
| 2026-04-16 09:42 | 51.23754 | 45.79909 | 32241 ft | 451 kts | 206° |
| 2026-04-16 09:43 | 51.18075 | 45.75639 | 32240 ft | 451 kts | 206° |
| 2026-04-16 09:43 | 51.12400 | 45.71377 | 32232 ft | 451 kts | 206° |
| 2026-04-16 09:44 | 51.06718 | 45.67126 | 32233 ft | 451 kts | 206° |
| 2026-04-16 09:44 | 51.00901 | 45.63583 | 32224 ft | 453 kts | 194° |
| 2026-04-16 09:45 | 50.94752 | 45.61390 | 32224 ft | 453 kts | 193° |
| 2026-04-16 09:45 | 50.88598 | 45.59213 | 32221 ft | 453 kts | 193° |
| 2026-04-16 09:46 | 50.82444 | 45.57006 | 32219 ft | 453 kts | 193° |
| 2026-04-16 09:46 | 50.76331 | 45.54829 | 32218 ft | 453 kts | 193° |
| 2026-04-16 09:47 | 50.70175 | 45.52683 | 32212 ft | 453 kts | 193° |
| 2026-04-16 09:47 | 50.64015 | 45.50535 | 32211 ft | 453 kts | 193° |
| 2026-04-16 09:48 | 50.57862 | 45.48404 | 32210 ft | 453 kts | 193° |
| 2026-04-16 09:48 | 50.51747 | 45.46291 | 32209 ft | 453 kts | 193° |
| 2026-04-16 09:49 | 50.45589 | 45.44167 | 32205 ft | 453 kts | 193° |
| 2026-04-16 09:49 | 50.39438 | 45.42048 | 32203 ft | 453 kts | 193° |
| 2026-04-16 09:50 | 50.33275 | 45.39930 | 32202 ft | 452 kts | 193° |
| 2026-04-16 09:50 | 50.27167 | 45.37840 | 32200 ft | 452 kts | 193° |
| 2026-04-16 09:51 | 50.21013 | 45.35737 | 32195 ft | 453 kts | 193° |
| 2026-04-16 09:51 | 50.14857 | 45.33639 | 32194 ft | 452 kts | 193° |
| 2026-04-16 09:52 | 50.08712 | 45.31549 | 32192 ft | 452 kts | 193° |
| 2026-04-16 09:52 | 50.02596 | 45.29483 | 32190 ft | 453 kts | 193° |
| 2026-04-16 09:53 | 49.96511 | 45.27004 | 32189 ft | 452 kts | 197° |
| 2026-04-16 09:53 | 49.90462 | 45.24305 | 32183 ft | 454 kts | 194° |
| 2026-04-16 09:53 | 49.87302 | 45.23840 | 32241 ft | 460 kts | 178° |
| 2026-04-16 09:54 | 49.84112 | 45.24273 | 32535 ft | 460 kts | 174° |
| 2026-04-16 09:54 | 49.80919 | 45.24545 | 32939 ft | 457 kts | 179° |
| 2026-04-16 09:54 | 49.77804 | 45.24664 | 33182 ft | 453 kts | 178° |
| 2026-04-16 09:55 | 49.71562 | 45.25839 | 33209 ft | 452 kts | 171° |
| 2026-04-16 09:55 | 49.65336 | 45.27072 | 33190 ft | 452 kts | 174° |
| 2026-04-16 09:56 | 49.59076 | 45.27989 | 33178 ft | 451 kts | 175° |
| 2026-04-16 09:56 | 49.52817 | 45.28860 | 33179 ft | 452 kts | 175° |
| 2026-04-16 09:57 | 49.46596 | 45.29726 | 33181 ft | 453 kts | 175° |
| 2026-04-16 09:57 | 49.40328 | 45.30599 | 33179 ft | 453 kts | 175° |
| 2026-04-16 09:58 | 49.34056 | 45.31470 | 33172 ft | 452 kts | 175° |
| 2026-04-16 09:58 | 49.27787 | 45.32338 | 33172 ft | 452 kts | 175° |
| 2026-04-16 09:59 | 49.21560 | 45.33198 | 33173 ft | 452 kts | 175° |
| 2026-04-16 09:59 | 49.15283 | 45.34063 | 33174 ft | 453 kts | 175° |
| 2026-04-16 10:00 | 49.09006 | 45.34927 | 33172 ft | 453 kts | 175° |
| 2026-04-16 10:00 | 49.02730 | 45.35787 | 33175 ft | 452 kts | 175° |
| 2026-04-16 10:01 | 48.93363 | 45.37067 | 33171 ft | 453 kts | 175° |
| 2026-04-16 10:01 | 48.87087 | 45.37923 | 33125 ft | 452 kts | 175° |
| 2026-04-16 10:02 | 48.80813 | 45.38776 | 33085 ft | 452 kts | 175° |
| 2026-04-16 10:02 | 48.74552 | 45.39625 | 33049 ft | 452 kts | 175° |
| 2026-04-16 10:03 | 48.68338 | 45.40467 | 32790 ft | 451 kts | 175° |
| 2026-04-16 10:03 | 48.65219 | 45.40888 | 32544 ft | 450 kts | 175° |
| 2026-04-16 10:03 | 48.62103 | 45.41309 | 32281 ft | 449 kts | 175° |
| 2026-04-16 10:04 | 48.58995 | 45.41727 | 32045 ft | 449 kts | 175° |
| 2026-04-16 10:04 | 48.55888 | 45.42145 | 32001 ft | 449 kts | 175° |
| 2026-04-16 10:04 | 48.49679 | 45.43167 | 32063 ft | 449 kts | 170° |
| 2026-04-16 10:05 | 48.43558 | 45.44612 | 32113 ft | 448 kts | 173° |
| 2026-04-16 10:05 | 48.37358 | 45.45487 | 32156 ft | 447 kts | 179° |
| 2026-04-16 10:06 | 48.31138 | 45.45528 | 32172 ft | 447 kts | 178° |
| 2026-04-16 10:06 | 48.24923 | 45.46142 | 32176 ft | 447 kts | 175° |
| 2026-04-16 10:07 | 48.18767 | 45.46956 | 32175 ft | 447 kts | 175° |
| 2026-04-16 10:07 | 48.12576 | 45.47867 | 32177 ft | 447 kts | 174° |
| 2026-04-16 10:08 | 48.06378 | 45.48672 | 32177 ft | 447 kts | 175° |
| 2026-04-16 10:08 | 48.00182 | 45.49463 | 32175 ft | 447 kts | 175° |
| 2026-04-16 10:09 | 47.94032 | 45.50296 | 32176 ft | 447 kts | 175° |
| 2026-04-16 10:09 | 47.87843 | 45.51116 | 32180 ft | 447 kts | 175° |
| 2026-04-16 10:10 | 47.81650 | 45.51926 | 32177 ft | 447 kts | 175° |
| 2026-04-16 10:10 | 47.75455 | 45.52742 | 32176 ft | 447 kts | 175° |
| 2026-04-16 10:11 | 47.69297 | 45.53525 | 32176 ft | 447 kts | 175° |
| 2026-04-16 10:11 | 47.63091 | 45.54315 | 32177 ft | 447 kts | 175° |
| 2026-04-16 10:12 | 47.56892 | 45.55112 | 32181 ft | 447 kts | 175° |
| 2026-04-16 10:12 | 47.50701 | 45.55925 | 32179 ft | 447 kts | 175° |
| 2026-04-16 10:13 | 47.44554 | 45.56709 | 32183 ft | 446 kts | 175° |
| 2026-04-16 10:13 | 47.38378 | 45.57505 | 32183 ft | 445 kts | 175° |
| 2026-04-16 10:14 | 47.32210 | 45.58304 | 32179 ft | 445 kts | 175° |
| 2026-04-16 10:14 | 47.25950 | 45.59106 | 32188 ft | 457 kts | 175° |
| 2026-04-16 10:15 | 47.19610 | 45.59915 | 32180 ft | 457 kts | 175° |
| 2026-04-16 10:15 | 47.13316 | 45.60722 | 32180 ft | 457 kts | 175° |
| 2026-04-16 10:16 | 47.06980 | 45.61514 | 32180 ft | 456 kts | 175° |
| 2026-04-16 10:16 | 47.00660 | 45.62297 | 32186 ft | 456 kts | 175° |
| 2026-04-16 10:17 | 46.94342 | 45.63084 | 32184 ft | 455 kts | 175° |
| 2026-04-16 10:17 | 46.88067 | 45.63872 | 32187 ft | 455 kts | 175° |
| 2026-04-16 10:18 | 46.81756 | 45.64676 | 32185 ft | 455 kts | 175° |
| 2026-04-16 10:18 | 46.75448 | 45.65463 | 32186 ft | 455 kts | 175° |
| 2026-04-16 10:19 | 46.69143 | 45.66259 | 32185 ft | 454 kts | 175° |
| 2026-04-16 10:19 | 46.62888 | 45.67025 | 32184 ft | 454 kts | 176° |
| 2026-04-16 10:20 | 46.59741 | 45.66787 | 32178 ft | 454 kts | 192° |
| 2026-04-16 10:20 | 46.56768 | 45.65299 | 32184 ft | 453 kts | 207° |
| 2026-04-16 10:20 | 46.54164 | 45.62742 | 32186 ft | 453 kts | 221° |
| 2026-04-16 10:20 | 46.52031 | 45.59398 | 32197 ft | 452 kts | 231° |
| 2026-04-16 10:21 | 46.48157 | 45.52210 | 32193 ft | 452 kts | 231° |
| 2026-04-16 10:21 | 46.44263 | 45.45130 | 32190 ft | 452 kts | 231° |
| 2026-04-16 10:22 | 46.40311 | 45.38049 | 32191 ft | 452 kts | 230° |
| 2026-04-16 10:22 | 46.36364 | 45.30974 | 32192 ft | 452 kts | 230° |
| 2026-04-16 10:23 | 46.32441 | 45.23959 | 32191 ft | 451 kts | 230° |
| 2026-04-16 10:23 | 46.28485 | 45.16910 | 32195 ft | 451 kts | 230° |
| 2026-04-16 10:24 | 46.24497 | 45.09821 | 32198 ft | 457 kts | 230° |
| 2026-04-16 10:24 | 46.20484 | 45.02698 | 32193 ft | 457 kts | 230° |
| 2026-04-16 10:25 | 46.16466 | 44.95598 | 32193 ft | 457 kts | 230° |
| 2026-04-16 10:25 | 46.12467 | 44.88558 | 32193 ft | 457 kts | 229° |
| 2026-04-16 10:26 | 46.08443 | 44.81474 | 32197 ft | 457 kts | 229° |
| 2026-04-16 10:26 | 46.04411 | 44.74400 | 32199 ft | 457 kts | 229° |
| 2026-04-16 10:27 | 46.00371 | 44.67327 | 32198 ft | 458 kts | 229° |
| 2026-04-16 10:27 | 45.96325 | 44.60256 | 32200 ft | 458 kts | 229° |
| 2026-04-16 10:28 | 45.92297 | 44.53247 | 32204 ft | 458 kts | 229° |
| 2026-04-16 10:28 | 45.88237 | 44.46189 | 32208 ft | 458 kts | 229° |
| 2026-04-16 10:29 | 45.84173 | 44.39143 | 32209 ft | 459 kts | 229° |
| 2026-04-16 10:29 | 45.80136 | 44.32137 | 32208 ft | 459 kts | 228° |
| 2026-04-16 10:30 | 45.76047 | 44.25112 | 32209 ft | 459 kts | 228° |
| 2026-04-16 10:30 | 45.71961 | 44.18094 | 32207 ft | 459 kts | 228° |
| 2026-04-16 10:31 | 45.67869 | 44.11073 | 32205 ft | 459 kts | 228° |
| 2026-04-16 10:31 | 45.63772 | 44.04059 | 32208 ft | 459 kts | 228° |
| 2026-04-16 10:32 | 45.59698 | 43.97106 | 32211 ft | 459 kts | 228° |
| 2026-04-16 10:32 | 45.55595 | 43.90118 | 32214 ft | 459 kts | 228° |
| 2026-04-16 10:33 | 45.51485 | 43.83138 | 32218 ft | 459 kts | 228° |
| 2026-04-16 10:33 | 45.47375 | 43.76175 | 32220 ft | 459 kts | 227° |
| 2026-04-16 10:34 | 45.43292 | 43.69273 | 32222 ft | 459 kts | 227° |
| 2026-04-16 10:34 | 45.39174 | 43.62327 | 32218 ft | 459 kts | 227° |
| 2026-04-16 10:35 | 45.35058 | 43.55404 | 32219 ft | 459 kts | 227° |
| 2026-04-16 10:35 | 45.30937 | 43.48490 | 32217 ft | 458 kts | 227° |
| 2026-04-16 10:36 | 45.26814 | 43.41592 | 32216 ft | 458 kts | 227° |
| 2026-04-16 10:36 | 45.22718 | 43.34756 | 32211 ft | 458 kts | 227° |
| 2026-04-16 10:37 | 45.18583 | 43.27868 | 32217 ft | 458 kts | 227° |
| 2026-04-16 10:37 | 45.14441 | 43.20989 | 32214 ft | 459 kts | 228° |
| 2026-04-16 10:38 | 45.10293 | 43.14118 | 32209 ft | 459 kts | 228° |
| 2026-04-16 10:38 | 45.06165 | 43.07291 | 32207 ft | 460 kts | 229° |
| 2026-04-16 10:39 | 45.02004 | 43.00430 | 32210 ft | 460 kts | 229° |
| 2026-04-16 10:39 | 44.97835 | 42.93572 | 32206 ft | 460 kts | 229° |
| 2026-04-16 10:40 | 44.93661 | 42.86722 | 32203 ft | 460 kts | 230° |
| 2026-04-16 10:40 | 44.89503 | 42.79916 | 32201 ft | 461 kts | 230° |
| 2026-04-16 10:41 | 44.85318 | 42.73084 | 32198 ft | 461 kts | 230° |
| 2026-04-16 10:41 | 44.81122 | 42.66250 | 32200 ft | 461 kts | 231° |
| 2026-04-16 10:42 | 44.76950 | 42.59471 | 32200 ft | 461 kts | 231° |
| 2026-04-16 10:42 | 44.72748 | 42.52657 | 32200 ft | 461 kts | 231° |
| 2026-04-16 10:43 | 44.68543 | 42.45859 | 32197 ft | 461 kts | 231° |
| 2026-04-16 10:43 | 44.64332 | 42.39066 | 32197 ft | 461 kts | 231° |
| 2026-04-16 10:44 | 44.60115 | 42.32297 | 32199 ft | 461 kts | 231° |
| 2026-04-16 10:44 | 44.55932 | 42.25576 | 32192 ft | 460 kts | 231° |
| 2026-04-16 10:45 | 44.51720 | 42.18831 | 32200 ft | 460 kts | 231° |
| 2026-04-16 10:45 | 44.47506 | 42.12100 | 32196 ft | 459 kts | 231° |
| 2026-04-16 10:46 | 44.43291 | 42.05380 | 32197 ft | 459 kts | 231° |
| 2026-04-16 10:46 | 44.39104 | 41.98721 | 32196 ft | 459 kts | 232° |
| 2026-04-16 10:47 | 44.34888 | 41.92032 | 32189 ft | 458 kts | 232° |
| 2026-04-16 10:47 | 44.30675 | 41.85368 | 32190 ft | 457 kts | 232° |
| 2026-04-16 10:48 | 44.26457 | 41.78706 | 32193 ft | 457 kts | 233° |
| 2026-04-16 10:48 | 44.22251 | 41.72068 | 32185 ft | 457 kts | 233° |
| 2026-04-16 10:49 | 44.18067 | 41.65499 | 32188 ft | 456 kts | 233° |
| 2026-04-16 10:49 | 44.13861 | 41.58899 | 32184 ft | 455 kts | 234° |
| 2026-04-16 10:50 | 44.09647 | 41.52310 | 32188 ft | 455 kts | 234° |
| 2026-04-16 10:50 | 44.05289 | 41.45901 | 32183 ft | 456 kts | 232° |
| 2026-04-16 10:51 | 44.00892 | 41.39628 | 32188 ft | 453 kts | 236° |
| 2026-04-16 10:51 | 43.96975 | 41.32820 | 32197 ft | 452 kts | 237° |
| 2026-04-16 10:52 | 43.93571 | 41.27313 | 32213 ft | 453 kts | 235° |
| 2026-04-16 10:52 | 43.89370 | 41.20794 | 32209 ft | 453 kts | 234° |
| 2026-04-16 10:53 | 43.84476 | 41.13249 | 32202 ft | 453 kts | 234° |
| 2026-04-16 10:53 | 43.80268 | 41.06772 | 32217 ft | 452 kts | 234° |
| 2026-04-16 10:54 | 43.76070 | 41.00328 | 32207 ft | 447 kts | 234° |
| 2026-04-16 10:54 | 43.72610 | 40.95016 | 32206 ft | 451 kts | 235° |
| 2026-04-16 10:55 | 43.70710 | 40.91615 | 32187 ft | 437 kts | 244° |
| 2026-04-16 10:55 | 43.69089 | 40.86689 | 31226 ft | 421 kts | 260° |
| 2026-04-16 10:55 | 43.68715 | 40.84024 | 30588 ft | 417 kts | 268° |
| 2026-04-16 10:55 | 43.68630 | 40.78778 | 29624 ft | 409 kts | 275° |
| 2026-04-16 10:56 | 43.68661 | 40.76141 | 29254 ft | 404 kts | 275° |
| 2026-04-16 10:56 | 43.68690 | 40.72362 | 28714 ft | 396 kts | 273° |
| 2026-04-16 10:56 | 43.68521 | 40.68579 | 28195 ft | 393 kts | 270° |
| 2026-04-16 10:56 | 43.68356 | 40.64829 | 27690 ft | 388 kts | 272° |
| 2026-04-16 10:57 | 43.68273 | 40.61129 | 27153 ft | 384 kts | 273° |
| 2026-04-16 10:57 | 43.68245 | 40.57463 | 26636 ft | 380 kts | 274° |
| 2026-04-16 10:57 | 43.68239 | 40.52658 | 25973 ft | 376 kts | 275° |
| 2026-04-16 10:57 | 43.68242 | 40.50222 | 25647 ft | 374 kts | 274° |
| 2026-04-16 10:58 | 43.68248 | 40.46649 | 25162 ft | 371 kts | 275° |
| 2026-04-16 10:58 | 43.68252 | 40.43142 | 24686 ft | 369 kts | 275° |
| 2026-04-16 10:58 | 43.68257 | 40.39612 | 24173 ft | 366 kts | 275° |
| 2026-04-16 10:58 | 43.68261 | 40.36105 | 23683 ft | 364 kts | 275° |
| 2026-04-16 10:59 | 43.68263 | 40.32619 | 23132 ft | 362 kts | 274° |
| 2026-04-16 10:59 | 43.68267 | 40.29155 | 22629 ft | 359 kts | 275° |
| 2026-04-16 10:59 | 43.68399 | 40.25689 | 22152 ft | 361 kts | 278° |
| 2026-04-16 10:59 | 43.68593 | 40.22239 | 21681 ft | 360 kts | 277° |
| 2026-04-16 11:00 | 43.68733 | 40.18789 | 21207 ft | 360 kts | 275° |
| 2026-04-16 11:00 | 43.68530 | 40.15337 | 20744 ft | 364 kts | 262° |
| 2026-04-16 11:00 | 43.67609 | 40.12105 | 20278 ft | 372 kts | 244° |
| 2026-04-16 11:00 | 43.65922 | 40.09345 | 19892 ft | 384 kts | 226° |
| 2026-04-16 11:01 | 43.63621 | 40.07378 | 19610 ft | 394 kts | 211° |
| 2026-04-16 11:01 | 43.61119 | 40.05846 | 19306 ft | 393 kts | 209° |
| 2026-04-16 11:01 | 43.58613 | 40.04356 | 18887 ft | 391 kts | 209° |
| 2026-04-16 11:01 | 43.56126 | 40.02848 | 18435 ft | 390 kts | 210° |
| 2026-04-16 11:02 | 43.53645 | 40.01315 | 17900 ft | 391 kts | 210° |
| 2026-04-16 11:02 | 43.51166 | 39.99771 | 17365 ft | 392 kts | 210° |
| 2026-04-16 11:02 | 43.48716 | 39.98242 | 16851 ft | 392 kts | 209° |
| 2026-04-16 11:02 | 43.46263 | 39.96715 | 16354 ft | 391 kts | 208° |
| 2026-04-16 11:03 | 43.43716 | 39.95396 | 15738 ft | 392 kts | 202° |
| 2026-04-16 11:03 | 43.41087 | 39.94395 | 15124 ft | 392 kts | 196° |
| 2026-04-16 11:03 | 43.35866 | 39.92645 | 14036 ft | 382 kts | 198° |
| 2026-04-16 11:04 | 43.33338 | 39.91611 | 13434 ft | 377 kts | 200° |
| 2026-04-16 11:04 | 43.30849 | 39.90525 | 12816 ft | 373 kts | 200° |
| 2026-04-16 11:04 | 43.28412 | 39.89435 | 12418 ft | 361 kts | 200° |
| 2026-04-16 11:04 | 43.26112 | 39.88397 | 12136 ft | 346 kts | 200° |
| 2026-04-16 11:05 | 43.23927 | 39.87204 | 11849 ft | 330 kts | 207° |
| 2026-04-16 11:05 | 43.21878 | 39.85935 | 11587 ft | 317 kts | 205° |
| 2026-04-16 11:05 | 43.19878 | 39.84816 | 11361 ft | 304 kts | 203° |
| 2026-04-16 11:05 | 43.17934 | 39.83826 | 11000 ft | 297 kts | 202° |
| 2026-04-16 11:06 | 43.15957 | 39.82952 | 10419 ft | 297 kts | 197° |
| 2026-04-16 11:06 | 43.13954 | 39.82262 | 10043 ft | 294 kts | 197° |
| 2026-04-16 11:06 | 43.12186 | 39.80971 | 9560 ft | 288 kts | 225° |
| 2026-04-16 11:06 | 43.11126 | 39.78750 | 8950 ft | 283 kts | 255° |
| 2026-04-16 11:07 | 43.11026 | 39.76123 | 8356 ft | 278 kts | 285° |
| 2026-04-16 11:07 | 43.11865 | 39.73784 | 7798 ft | 275 kts | 310° |
| 2026-04-16 11:07 | 43.13307 | 39.72112 | 7251 ft | 272 kts | 333° |
| 2026-04-16 11:07 | 43.15043 | 39.71176 | 6880 ft | 264 kts | 348° |
| 2026-04-16 11:08 | 43.16830 | 39.71066 | 6583 ft | 255 kts | 9° |
| 2026-04-16 11:08 | 43.18461 | 39.71852 | 6343 ft | 244 kts | 30° |
| 2026-04-16 11:08 | 43.19790 | 39.73251 | 6047 ft | 239 kts | 41° |
| 2026-04-16 11:08 | 43.21004 | 39.74779 | 5764 ft | 235 kts | 42° |
| 2026-04-16 11:09 | 43.22189 | 39.76262 | 5456 ft | 233 kts | 41° |
| 2026-04-16 11:09 | 43.23390 | 39.77744 | 5127 ft | 232 kts | 41° |
| 2026-04-16 11:09 | 43.24573 | 39.79189 | 4921 ft | 223 kts | 41° |
| 2026-04-16 11:09 | 43.25707 | 39.80569 | 4729 ft | 212 kts | 40° |
| 2026-04-16 11:10 | 43.26805 | 39.81886 | 4429 ft | 207 kts | 37° |
| 2026-04-16 11:10 | 43.27991 | 39.82942 | 3997 ft | 197 kts | 27° |
| 2026-04-16 11:10 | 43.29158 | 39.83787 | 3714 ft | 185 kts | 27° |
| 2026-04-16 11:10 | 43.30258 | 39.84594 | 3340 ft | 180 kts | 27° |
| 2026-04-16 11:11 | 43.31327 | 39.85388 | 3131 ft | 167 kts | 27° |
| 2026-04-16 11:11 | 43.32351 | 39.86159 | 2695 ft | 168 kts | 27° |
| 2026-04-16 11:11 | 43.33346 | 39.86917 | 2408 ft | 158 kts | 27° |
| 2026-04-16 11:11 | 43.34259 | 39.87616 | 2142 ft | 147 kts | 27° |
| 2026-04-16 11:12 | 43.35146 | 39.88302 | 1901 ft | 147 kts | 27° |
| 2026-04-16 11:12 | 43.36041 | 39.88985 | 1721 ft | 147 kts | 27° |
| 2026-04-16 11:12 | 43.36955 | 39.89619 | 1583 ft | 147 kts | 22° |
| 2026-04-16 11:12 | 43.37871 | 39.90240 | 1330 ft | 148 kts | 27° |
| 2026-04-16 11:13 | 43.38765 | 39.90931 | 1137 ft | 150 kts | 27° |
| 2026-04-16 11:13 | 43.39684 | 39.91595 | 959 ft | 149 kts | 31° |
| 2026-04-16 11:13 | 43.40590 | 39.92297 | 725 ft | 149 kts | 30° |
| 2026-04-16 11:13 | 43.41491 | 39.93000 | 503 ft | 149 kts | 30° |
| 2026-04-16 11:14 | 43.42399 | 39.93680 | 315 ft | 150 kts | 28° |
| 2026-04-16 11:14 | 43.43309 | 39.94363 | 126 ft | 149 kts | 30° |
| 2026-04-16 11:14 | 43.44179 | 39.95038 | 86 ft | 133 kts | 29° |
| 2026-04-16 11:14 | 43.44754 | 39.95456 | 92 ft | 56 kts | 28° |
| 2026-04-16 11:15 | 43.44906 | 39.95569 | 94 ft | 11 kts | 26° |
| 2026-04-16 11:15 | 43.44988 | 39.95563 | 95 ft | 14 kts | 336° |
| 2026-04-16 11:15 | 43.45061 | 39.95509 | 98 ft | 12 kts | 326° |
| 2026-04-16 11:15 | 43.45099 | 39.95399 | 96 ft | 15 kts | 266° |
| 2026-04-16 11:16 | 43.45060 | 39.95260 | 94 ft | 17 kts | 245° |
| 2026-04-16 11:16 | 43.45010 | 39.95110 | 89 ft | 11 kts | 243° |
| 2026-04-16 11:16 | 43.44960 | 39.95027 | 86 ft | 12 kts | 240° |
| 2026-04-16 11:16 | 43.44922 | 39.94912 | 83 ft | 14 kts | 246° |
| 2026-04-16 11:17 | 43.44878 | 39.94789 | 83 ft | 15 kts | 244° |
| 2026-04-16 11:17 | 43.44838 | 39.94673 | 85 ft | 11 kts | 245° |
| 2026-04-16 11:17 | 43.44802 | 39.94566 | 81 ft | 14 kts | 245° |
| 2026-04-16 11:17 | 43.44759 | 39.94439 | 82 ft | 16 kts | 245° |
| 2026-04-16 11:18 | 43.44739 | 39.94377 | 82 ft | 6 kts | 247° |
| 2026-04-16 11:18 | 43.44768 | 39.94327 | 80 ft | 9 kts | 334° |
| 2026-04-16 11:18 | 43.44793 | 39.94312 | 81 ft | 0 kts | 335° |